createdAt,value
2022-10-08T00:00:58.993Z,24.92
2022-10-08T00:04:03.389Z,23.75
2022-10-08T00:07:07.584Z,22.30
2022-10-08T00:10:10.473Z,20.58
2022-10-08T00:13:13.358Z,25.47
2022-10-08T00:16:21.693Z,20.80
2022-10-08T00:19:24.674Z,20.30
2022-10-08T00:22:27.627Z,22.98
2022-10-08T00:25:30.616Z,20.85
2022-10-08T00:28:37.108Z,18.33
2022-10-08T00:31:41.273Z,21.90
2022-10-08T00:34:44.280Z,25.02
2022-10-08T00:37:47.156Z,20.38
2022-10-08T00:40:50.159Z,21.60
2022-10-08T00:43:55.025Z,20.13
2022-10-08T00:46:57.919Z,16.58
2022-10-08T00:50:22.413Z,17.38
2022-10-08T00:53:25.311Z,17.42
2022-10-08T00:56:31.394Z,16.73
2022-10-08T00:59:34.447Z,17.40
2022-10-08T01:02:37.460Z,19.33
2022-10-08T01:05:55.237Z,16.67
2022-10-08T01:09:09.739Z,18.40
2022-10-08T01:12:15.859Z,17.13
2022-10-08T01:15:34.739Z,16.97
2022-10-08T01:19:03.016Z,17.58
2022-10-08T01:22:32.071Z,19.52
2022-10-08T01:25:57.127Z,16.50
2022-10-08T01:29:04.885Z,16.35
2022-10-08T01:32:17.243Z,16.00
2022-10-08T01:35:23.733Z,16.23
2022-10-08T01:38:28.268Z,16.73
2022-10-08T01:41:31.264Z,17.50
2022-10-08T01:44:43.663Z,17.33
2022-10-08T01:47:46.997Z,15.60
2022-10-08T01:51:00.110Z,20.33
2022-10-08T01:54:03.694Z,22.83
2022-10-08T01:57:06.582Z,22.23
2022-10-08T02:00:11.574Z,20.77
2022-10-08T02:03:17.157Z,19.83
2022-10-08T02:06:20.162Z,21.48
2022-10-08T02:09:26.734Z,20.73
2022-10-08T02:12:29.925Z,19.90
2022-10-08T02:15:35.826Z,20.77
2022-10-08T02:18:42.276Z,20.40
2022-10-08T02:21:45.153Z,17.85
2022-10-08T02:25:19.594Z,18.25
2022-10-08T02:28:30.110Z,17.80
2022-10-08T02:31:40.878Z,18.38
2022-10-08T02:34:50.715Z,18.70
2022-10-08T02:38:03.553Z,19.05
2022-10-08T02:41:06.695Z,18.98
2022-10-08T02:44:15.561Z,17.10
2022-10-08T02:47:20.719Z,18.00
2022-10-08T02:50:24.633Z,19.60
2022-10-08T02:53:27.576Z,18.13
2022-10-08T02:57:18.481Z,20.27
2022-10-08T03:00:21.381Z,19.38
2022-10-08T03:03:35.191Z,22.05
2022-10-08T03:06:38.088Z,19.53
2022-10-08T03:09:42.841Z,20.75
2022-10-08T03:12:46.070Z,18.88
2022-10-08T03:15:50.845Z,20.55
2022-10-08T03:18:54.059Z,20.25
2022-10-08T03:21:57.379Z,22.10
2022-10-08T03:25:00.343Z,19.10
2022-10-08T03:28:03.320Z,21.63
2022-10-08T03:31:06.898Z,18.13
2022-10-08T03:34:09.852Z,22.13
2022-10-08T03:37:12.723Z,19.73
2022-10-08T03:40:15.621Z,22.55
2022-10-08T03:43:18.518Z,24.52
2022-10-08T03:46:21.446Z,20.73
2022-10-08T03:49:24.414Z,20.00
2022-10-08T03:52:27.306Z,22.93
2022-10-08T03:55:30.206Z,23.13
2022-10-08T03:58:33.230Z,20.77
2022-10-08T04:01:36.199Z,17.98
2022-10-08T04:04:39.158Z,21.13
2022-10-08T04:07:42.041Z,18.27
2022-10-08T04:10:46.244Z,19.45
2022-10-08T04:13:49.202Z,18.38
2022-10-08T04:16:53.300Z,21.10
2022-10-08T04:19:57.236Z,18.58
2022-10-08T04:23:00.232Z,19.53
2022-10-08T04:26:03.333Z,19.20
2022-10-08T04:29:08.206Z,19.27
2022-10-08T04:32:11.072Z,20.52
2022-10-08T04:35:14.008Z,17.92
2022-10-08T04:38:16.884Z,20.37
2022-10-08T04:41:22.381Z,21.58
2022-10-08T04:44:25.340Z,21.33
2022-10-08T04:47:28.218Z,19.65
2022-10-08T04:50:31.128Z,22.83
2022-10-08T04:53:34.469Z,19.37
2022-10-08T04:56:37.374Z,20.98
2022-10-08T04:59:59.452Z,19.42
2022-10-08T05:03:03.358Z,17.70
2022-10-08T05:06:06.816Z,20.38
2022-10-08T05:09:09.800Z,22.33
2022-10-08T05:12:12.675Z,19.63
2022-10-08T05:15:15.649Z,20.05
2022-10-08T05:18:18.572Z,17.23
2022-10-08T05:21:24.107Z,16.75
2022-10-08T05:24:27.112Z,17.43
2022-10-08T05:27:31.177Z,18.30
2022-10-08T05:30:34.085Z,17.98
2022-10-08T05:33:37.301Z,17.30
2022-10-08T05:36:40.247Z,18.35
2022-10-08T05:39:43.169Z,19.23
2022-10-08T05:42:46.327Z,18.65
2022-10-08T05:45:51.608Z,21.52
2022-10-08T05:48:55.232Z,20.40
2022-10-08T05:51:58.605Z,20.60
2022-10-08T05:55:03.916Z,20.50
2022-10-08T05:58:06.801Z,23.35
2022-10-08T06:01:23.227Z,29.73
2022-10-08T06:04:26.241Z,24.90
2022-10-08T06:07:29.177Z,23.38
2022-10-08T06:10:33.861Z,21.20
2022-10-08T06:13:36.826Z,21.20
2022-10-08T06:16:39.881Z,20.70
2022-10-08T06:19:42.824Z,20.90
2022-10-08T06:22:45.987Z,20.60
2022-10-08T06:25:49.196Z,22.17
2022-10-08T06:28:52.213Z,23.13
2022-10-08T06:31:55.161Z,25.25
2022-10-08T06:34:58.700Z,23.52
2022-10-08T06:38:02.099Z,24.13
2022-10-08T06:41:05.123Z,23.33
2022-10-08T06:44:10.139Z,26.25
2022-10-08T06:47:13.099Z,22.90
2022-10-08T06:50:16.108Z,21.73
2022-10-08T06:53:18.992Z,22.48
2022-10-08T06:56:21.975Z,21.33
2022-10-08T06:59:24.967Z,22.75
2022-10-08T07:02:27.929Z,22.70
2022-10-08T07:05:30.848Z,22.38
2022-10-08T07:08:33.884Z,19.92
2022-10-08T07:11:36.831Z,20.80
2022-10-08T07:14:40.910Z,18.75
2022-10-08T07:17:43.873Z,21.38
2022-10-08T07:20:56.075Z,22.20
2022-10-08T07:24:02.098Z,21.92
2022-10-08T07:27:05.029Z,23.13
2022-10-08T07:30:08.293Z,22.17
2022-10-08T07:33:11.212Z,25.25
2022-10-08T07:36:18.365Z,23.67
2022-10-08T07:39:21.890Z,22.25
2022-10-08T07:42:24.802Z,25.10
2022-10-08T07:45:27.966Z,25.35
2022-10-08T07:48:34.091Z,22.13
2022-10-08T07:51:37.339Z,20.40
2022-10-08T07:54:40.598Z,24.70
2022-10-08T07:57:43.613Z,19.90
2022-10-08T08:00:46.519Z,18.80
2022-10-08T08:03:59.802Z,19.55
2022-10-08T08:07:02.719Z,17.88
2022-10-08T08:10:06.103Z,22.70
2022-10-08T08:13:09.032Z,20.07
2022-10-08T08:16:22.244Z,20.38
2022-10-08T08:19:27.335Z,21.23
2022-10-08T08:22:30.406Z,16.88
2022-10-08T08:25:33.916Z,20.05
2022-10-08T08:28:37.024Z,18.47
2022-10-08T08:31:44.631Z,22.80
2022-10-08T08:34:47.604Z,19.38
2022-10-08T08:37:50.497Z,17.45
2022-10-08T08:40:55.375Z,18.80
2022-10-08T08:44:02.655Z,14.73
2022-10-08T08:47:24.361Z,16.73
2022-10-08T08:50:33.079Z,17.50
2022-10-08T08:53:36.277Z,15.00
2022-10-08T08:56:39.191Z,18.73
2022-10-08T08:59:43.742Z,16.23
2022-10-08T09:03:18.109Z,14.48
2022-10-08T09:06:23.109Z,15.80
2022-10-08T09:09:38.961Z,17.73
2022-10-08T09:12:44.982Z,16.42
2022-10-08T09:15:48.277Z,14.50
2022-10-08T09:18:51.991Z,18.50
2022-10-08T09:21:55.056Z,14.10
2022-10-08T09:25:00.197Z,15.02
2022-10-08T09:28:06.176Z,15.85
2022-10-08T09:31:20.319Z,17.87
2022-10-08T09:34:23.224Z,12.68
2022-10-08T09:37:26.136Z,14.88
2022-10-08T09:40:29.100Z,12.82
2022-10-08T09:43:33.859Z,12.70
2022-10-08T09:46:36.767Z,16.33
2022-10-08T09:49:39.678Z,13.63
2022-10-08T09:52:42.692Z,13.80
2022-10-08T09:55:57.962Z,15.70
2022-10-08T09:59:02.296Z,15.43
2022-10-08T10:02:07.719Z,14.00
2022-10-08T10:05:37.460Z,15.25
2022-10-08T10:08:53.348Z,16.75
2022-10-08T10:12:25.122Z,16.80
2022-10-08T10:15:41.080Z,15.02
2022-10-08T10:18:48.998Z,14.03
2022-10-08T10:21:57.795Z,18.02
2022-10-08T10:25:14.388Z,13.60
2022-10-08T10:28:25.543Z,14.38
2022-10-08T10:31:31.745Z,12.20
2022-10-08T10:34:36.263Z,13.07
2022-10-08T10:37:45.465Z,11.98
2022-10-08T10:40:50.396Z,14.18
2022-10-08T10:44:13.268Z,15.25
2022-10-08T10:47:16.228Z,14.15
2022-10-08T10:50:29.496Z,13.20
2022-10-08T10:53:50.499Z,15.23
2022-10-08T10:56:59.296Z,13.82
2022-10-08T11:00:09.743Z,12.75
2022-10-08T11:03:21.348Z,14.70
2022-10-08T11:06:45.933Z,11.07
2022-10-08T11:09:58.637Z,11.20
2022-10-08T11:13:30.160Z,12.43
2022-10-08T11:17:00.440Z,11.32
2022-10-08T11:20:27.620Z,10.90
2022-10-08T11:23:45.481Z,8.97
2022-10-08T11:27:12.794Z,9.95
2022-10-08T11:30:32.939Z,9.63
2022-10-08T11:33:36.678Z,11.45
2022-10-08T11:36:55.189Z,9.23
2022-10-08T11:40:21.224Z,10.07
2022-10-08T11:43:27.191Z,10.68
2022-10-08T11:46:31.705Z,10.32
2022-10-08T11:49:37.768Z,16.48
2022-10-08T11:52:40.641Z,10.10
2022-10-08T11:55:57.311Z,10.90
2022-10-08T11:59:03.640Z,11.05
2022-10-08T12:02:44.036Z,9.00
2022-10-08T12:05:50.881Z,21.67
2022-10-08T12:08:57.261Z,16.23
2022-10-08T12:12:00.144Z,8.97
2022-10-08T12:15:03.111Z,8.57
2022-10-08T12:18:25.688Z,12.57
2022-10-08T12:21:29.067Z,8.20
2022-10-08T12:24:37.989Z,12.40
2022-10-08T12:27:41.265Z,10.33
2022-10-08T12:30:54.711Z,7.78
2022-10-08T12:34:12.104Z,12.82
2022-10-08T12:37:51.126Z,8.80
2022-10-08T12:41:15.965Z,8.35
2022-10-08T12:44:39.788Z,10.23
2022-10-08T12:47:55.178Z,9.27
2022-10-08T12:51:22.644Z,10.38
2022-10-08T12:54:29.110Z,9.32
2022-10-08T12:57:37.444Z,10.82
2022-10-08T13:00:40.401Z,10.47
2022-10-08T13:03:43.359Z,10.23
2022-10-08T13:06:53.373Z,10.27
2022-10-08T13:10:00.710Z,7.70
2022-10-08T13:13:05.410Z,10.68
2022-10-08T13:16:12.291Z,9.90
2022-10-08T13:19:19.881Z,11.30
2022-10-08T13:22:26.127Z,10.80
2022-10-08T13:25:36.134Z,11.40
2022-10-08T13:28:59.426Z,18.13
2022-10-08T13:32:12.323Z,12.87
2022-10-08T13:35:24.280Z,11.95
2022-10-08T13:38:34.140Z,9.20
2022-10-08T13:41:37.080Z,10.68
2022-10-08T13:44:39.996Z,8.32
2022-10-08T13:47:42.884Z,10.60
2022-10-08T13:50:46.814Z,9.90
2022-10-08T13:53:53.614Z,9.23
2022-10-08T13:56:59.208Z,9.15
2022-10-08T14:00:02.134Z,8.65
2022-10-08T14:03:07.884Z,10.60
2022-10-08T14:06:10.832Z,10.82
2022-10-08T14:09:18.622Z,10.82
2022-10-08T14:12:26.441Z,10.50
2022-10-08T14:15:29.327Z,9.63
2022-10-08T14:18:32.208Z,10.13
2022-10-08T14:21:35.826Z,8.98
2022-10-08T14:24:38.805Z,10.45
2022-10-08T14:27:41.677Z,11.38
2022-10-08T14:30:44.570Z,11.80
2022-10-08T14:33:47.459Z,10.40
2022-10-08T14:36:51.700Z,9.75
2022-10-08T14:39:54.577Z,11.75
2022-10-08T14:42:57.506Z,12.57
2022-10-08T14:46:00.490Z,11.20
2022-10-08T14:49:04.819Z,12.20
2022-10-08T14:52:07.698Z,9.48
2022-10-08T14:55:10.704Z,13.82
2022-10-08T14:58:13.583Z,11.13
2022-10-08T15:01:16.487Z,11.88
2022-10-08T15:04:19.534Z,9.70
2022-10-08T15:07:22.445Z,9.55
2022-10-08T15:10:25.444Z,9.63
2022-10-08T15:13:28.522Z,12.43
2022-10-08T15:16:31.475Z,10.05
2022-10-08T15:19:34.570Z,12.17
2022-10-08T15:22:37.453Z,10.50
2022-10-08T15:25:40.483Z,9.68
2022-10-08T15:28:43.999Z,10.65
2022-10-08T15:31:49.241Z,13.23
2022-10-08T15:34:52.197Z,13.13
2022-10-08T15:37:55.101Z,11.40
2022-10-08T15:41:04.178Z,10.02
2022-10-08T15:44:15.447Z,9.68
2022-10-08T15:47:18.364Z,10.93
2022-10-08T15:50:21.335Z,12.77
2022-10-08T15:53:24.238Z,11.18
2022-10-08T15:56:27.221Z,11.65
2022-10-08T15:59:30.133Z,14.13
2022-10-08T16:02:33.053Z,15.68
2022-10-08T16:05:36.023Z,19.93
2022-10-08T16:08:39.357Z,19.98
2022-10-08T16:11:42.399Z,18.60
2022-10-08T16:14:45.353Z,20.60
2022-10-08T16:17:48.241Z,15.43
2022-10-08T16:20:52.782Z,15.80
2022-10-08T16:23:56.419Z,19.90
2022-10-08T16:26:59.339Z,18.90
2022-10-08T16:30:02.364Z,20.50
2022-10-08T16:33:05.335Z,33.92
2022-10-08T16:36:09.334Z,38.47
2022-10-08T16:39:12.624Z,44.47
2022-10-08T16:42:15.578Z,38.70
2022-10-08T16:45:18.445Z,32.05
2022-10-08T16:48:21.474Z,25.77
2022-10-08T16:51:25.261Z,23.00
2022-10-08T16:54:28.422Z,24.95
2022-10-08T16:57:32.724Z,27.52
2022-10-08T17:00:37.296Z,25.67
2022-10-08T17:03:40.208Z,42.25
2022-10-08T17:06:43.474Z,40.30
2022-10-08T17:09:46.686Z,44.35
2022-10-08T17:12:49.709Z,37.70
2022-10-08T17:16:03.333Z,42.22
2022-10-08T17:19:06.282Z,41.28
2022-10-08T17:22:10.512Z,39.03
2022-10-08T17:25:13.452Z,35.83
2022-10-08T17:28:16.373Z,32.60
2022-10-08T17:31:26.627Z,37.75
2022-10-08T17:34:29.686Z,34.53
2022-10-08T17:37:32.579Z,36.10
2022-10-08T17:40:35.512Z,31.98
2022-10-08T17:43:38.407Z,38.55
2022-10-08T17:46:43.720Z,35.05
2022-10-08T17:49:46.669Z,44.95
2022-10-08T17:52:49.792Z,65.10
2022-10-08T17:56:03.743Z,47.50
2022-10-08T17:59:06.680Z,53.35
2022-10-08T18:02:09.686Z,50.95
2022-10-08T18:05:12.707Z,41.60
2022-10-08T18:08:15.766Z,27.20
2022-10-08T18:11:18.676Z,39.25
2022-10-08T18:14:21.838Z,35.10
2022-10-08T18:17:24.940Z,36.40
2022-10-08T18:20:27.834Z,38.17
2022-10-08T18:23:31.492Z,41.37
2022-10-08T18:26:36.727Z,39.22
2022-10-08T18:29:39.685Z,39.55
2022-10-08T18:32:42.577Z,46.10
2022-10-08T18:35:45.485Z,42.85
2022-10-08T18:38:52.829Z,45.20
2022-10-08T18:41:55.718Z,44.28
2022-10-08T18:44:58.719Z,41.80
2022-10-08T18:48:01.639Z,45.33
2022-10-08T18:51:12.780Z,42.78
2022-10-08T18:54:15.714Z,49.53
2022-10-08T18:57:18.627Z,43.47
2022-10-08T19:00:21.583Z,39.70
2022-10-08T19:03:24.867Z,44.53
2022-10-08T19:06:29.325Z,41.20
2022-10-08T19:09:32.776Z,38.57
2022-10-08T19:12:35.664Z,39.70
2022-10-08T19:15:39.073Z,47.25
2022-10-08T19:18:51.860Z,43.75
2022-10-08T19:21:55.043Z,48.65
2022-10-08T19:24:57.957Z,45.80
2022-10-08T19:28:01.134Z,40.60
2022-10-08T19:31:23.763Z,44.28
2022-10-08T19:34:27.169Z,40.67
2022-10-08T19:37:30.098Z,48.10
2022-10-08T19:40:34.341Z,46.00
2022-10-08T19:43:37.445Z,42.35
2022-10-08T19:46:40.442Z,42.75
2022-10-08T19:49:43.354Z,43.33
2022-10-08T19:52:51.610Z,36.85
2022-10-08T19:55:54.799Z,36.90
2022-10-08T19:58:57.837Z,34.42
2022-10-08T20:02:00.894Z,33.42
2022-10-08T20:05:03.882Z,35.45
2022-10-08T20:08:06.798Z,31.10
2022-10-08T20:11:12.359Z,29.93
2022-10-08T20:14:15.360Z,31.98
2022-10-08T20:17:18.439Z,31.00
2022-10-08T20:20:32.800Z,35.80
2022-10-08T20:23:37.064Z,37.70
2022-10-08T20:26:40.790Z,36.40
2022-10-08T20:29:43.670Z,32.53
2022-10-08T20:32:46.829Z,38.10
2022-10-08T20:35:49.940Z,33.67
2022-10-08T20:38:52.981Z,28.00
2022-10-08T20:41:56.035Z,31.67
2022-10-08T20:44:59.054Z,29.15
2022-10-08T20:48:01.944Z,31.10
2022-10-08T20:51:15.327Z,29.58
2022-10-08T20:54:18.271Z,29.08
2022-10-08T20:57:21.172Z,26.43
2022-10-08T21:00:24.214Z,26.55
2022-10-08T21:03:28.396Z,27.55
2022-10-08T21:06:36.574Z,28.23
2022-10-08T21:09:39.521Z,29.30
2022-10-08T21:12:42.621Z,27.37
2022-10-08T21:15:45.557Z,29.55
2022-10-08T21:18:52.390Z,25.48
2022-10-08T21:21:55.271Z,25.00
2022-10-08T21:24:58.175Z,22.55
2022-10-08T21:28:01.249Z,27.50
2022-10-08T21:31:04.597Z,27.15
2022-10-08T21:34:07.733Z,30.98
2022-10-08T21:37:13.798Z,30.85
2022-10-08T21:40:17.024Z,26.00
2022-10-08T21:43:19.901Z,30.07
2022-10-08T21:46:24.058Z,34.83
2022-10-08T21:49:27.149Z,30.40
2022-10-08T21:52:30.033Z,30.63
2022-10-08T21:55:32.909Z,27.77
2022-10-08T21:58:40.599Z,26.17
2022-10-08T22:01:50.453Z,28.48
2022-10-08T22:04:53.402Z,28.13
2022-10-08T22:07:56.308Z,28.58
2022-10-08T22:10:59.214Z,21.50
2022-10-08T22:14:02.208Z,23.03
2022-10-08T22:17:05.099Z,32.03
2022-10-08T22:20:08.319Z,47.88
2022-10-08T22:23:11.200Z,33.20
2022-10-08T22:26:42.113Z,31.02
2022-10-08T22:29:45.064Z,27.10
2022-10-08T22:32:48.130Z,23.75
2022-10-08T22:35:51.181Z,22.92
2022-10-08T22:38:54.571Z,22.13
2022-10-08T22:41:57.467Z,22.85
2022-10-08T22:45:00.407Z,23.70
2022-10-08T22:48:03.294Z,22.60
2022-10-08T22:51:17.408Z,23.25
2022-10-08T22:54:20.333Z,20.50
2022-10-08T22:57:23.229Z,20.50
2022-10-08T23:00:26.187Z,23.80
2022-10-08T23:03:29.275Z,26.73
2022-10-08T23:06:33.469Z,23.05
2022-10-08T23:09:36.367Z,22.90
2022-10-08T23:12:39.254Z,24.17
2022-10-08T23:15:42.139Z,25.90
2022-10-08T23:18:46.814Z,22.45
2022-10-08T23:21:49.709Z,22.65
2022-10-08T23:24:52.609Z,26.58
2022-10-08T23:27:55.484Z,21.65
2022-10-08T23:31:07.497Z,26.67
2022-10-08T23:34:10.476Z,21.95
2022-10-08T23:37:13.361Z,21.70
2022-10-08T23:40:16.265Z,19.90
2022-10-08T23:43:19.215Z,21.17
2022-10-08T23:46:23.444Z,18.93
2022-10-08T23:49:26.394Z,19.55
2022-10-08T23:52:29.279Z,23.13
2022-10-08T23:55:32.181Z,21.13
2022-10-08T23:58:35.167Z,20.33
